Logo AVAMET
Benvolgut visitant, si us plau, ingressa Recuperar contrasenya
AVAMET paisatges

Xest centre

Dades diàries. Acumulats / Últims 30 dies disponibles

Data Temperatura (°C) Humitat rel. (%) Pressió rel. (hPa) Vent (km/h) Precipitació
Mínima Mitjana Màxima Amplitud
tèrmica
Mínima Mitjana Màxima Mínima Mitjana Màxima Predom. Mitjana Ràfega
màxima
Total
(mm)
Índex-n
Mínima Mitjana Màxima Mínima Mitjana Màxima n
0 a 1
P0 max
mm 5'
Dades mensuals acumulades fins l'últim dia disponible
03/2020 3,9 9,7 15,8 13,2 9,2 17,4 26,3 22,4 13 64 96 995 1.014 1.026   9,0 95,0 86,4
Dades anuals acumulades fins l'últim dia disponible
2020 1,9 8,4 15,8 12,3 8,2 17,4 26,3 24,4 12 64 96 995 1.019 1.031   7,1 95,0 226,0
Últims 30 dies disponibles
30-03-2020 7,1     10,9     14,1 7,0 60 70 86 1.009 1.010 1.011 ESE 7,1 32,2 6,0 0,25 0,40
29-03-2020 7,3     14,7     22,8 15,5 24 52 76 1.009 1.012 1.016 WNW 4,8 29,0 0,0
28-03-2020 3,9     9,9     16,0 12,1 40 62 84 1.014 1.015 1.016 WNW 5,0 27,4 0,0
27-03-2020 5,6     7,4     9,2 3,6 76 82 87 1.009 1.011 1.014 NW 3,7 17,7 3,6
26-03-2020 5,6     9,7     15,9 10,3 27 66 88 1.004 1.007 1.011 N 7,9 37,0 0,0
25-03-2020 7,4     8,5     9,9 2,5 74 80 87 1.011 1.014 1.015 NNW 5,1 30,6 1,4
24-03-2020 9,8     11,7     12,7 2,9 71 80 91 1.013 1.014 1.015 ENE 12,9 48,3 1,2 0,37 0,40
23-03-2020 10,5     12,1     14,6 4,1 72 89 95 1.011 1.013 1.014 E 8,0 30,6 15,8 0,18 1,50
22-03-2020 9,7     11,3     13,7 4,0 70 83 91 1.008 1.009 1.012 ESE 4,7 29,0 16,0
21-03-2020 9,6     11,2     12,8 3,2 71 82 91 1.009 1.011 1.014 WNW 3,1 19,3 2,4 0,25 0,40
20-03-2020 10,4     11,8     13,8 3,4 65 81 90 1.014 1.015 1.018 E 5,5 30,6 1,0
19-03-2020 9,3     11,8     14,7 5,4 71 83 90 1.017 1.020 1.023 E 5,1 27,4 0,0
18-03-2020 11,0     12,8     16,2 5,2 60 78 88 1.022 1.024 1.026 ESE 6,3 33,8 0,0
17-03-2020 9,6     11,5     13,4 3,8 88 93 96 1.016 1.021 1.026 NNW 5,5 37,0 24,6 0,32 0,60
16-03-2020 7,7     10,6     13,2 5,5 71 84 95 1.007 1.010 1.016 NW 7,7 33,8 13,6 0,33 2,40
15-03-2020 8,6     12,8     18,1 9,5 54 76 85 1.011 1.014 1.017 ESE 6,3 32,2 0,0
14-03-2020 9,8     13,9     19,4 9,6 48 70 85 1.015 1.016 1.018 ESE 5,5 30,6 0,0
13-03-2020 9,9     13,9     17,8 7,9 52 72 89 1.015 1.016 1.018 ESE 6,3 33,8 0,0
12-03-2020 12,0     16,9     23,7 11,7 37 56 69 1.014 1.016 1.018 ESE 4,3 24,1 0,0
11-03-2020 11,7     17,5     26,3 14,6 25 49 63 1.018 1.019 1.020 WNW 6,3 29,0 0,0
10-03-2020 10,4     15,7     20,8 10,4 29 43 63 1.019 1.020 1.023 NW 4,3 30,6 0,0
09-03-2020 12,7     16,8     21,8 9,1 20 33 52 1.016 1.018 1.020 NW 10,3 37,0 0,0
08-03-2020 8,1     14,3     24,6 16,5 13 46 60 1.016 1.019 1.021 WNW 5,0 38,6 0,0
07-03-2020 8,2     13,1     19,1 10,9 27 37 53 1.017 1.019 1.021 NW 12,2 43,5 0,0
06-03-2020 10,5     13,3     16,9 6,4 21 36 55 1.009 1.011 1.018 NW 15,9 64,4 0,0
05-03-2020 13,9     16,8     20,3 6,4 28 46 57 1.004 1.008 1.013 W 16,3 66,0 0,0
04-03-2020 15,8     18,7     22,8 7,0 33 49 62 1.012 1.013 1.015 W 18,0 49,9 0,0
03-03-2020 9,9     13,7     17,9 8,0 32 46 57 1.007 1.011 1.014 W 23,2 82,1 0,0
02-03-2020 11,2     15,2     18,6 7,4 27 44 65 995 1.003 1.013 W 27,7 95,0 0,8
01-03-2020 13,2     16,3     19,7 6,5 36 48 56 1.007 1.009 1.012 W 17,2 56,3 0,0
Últims 13 mesos disponibles
02/2020 4,8 9,1 14,9 13,9 11,9 20,3 26,3 21,5 33 61 91 1.010 1.022 1.029 ESE 6,0 51,5 6,0
01/2020 1,9 6,5 14,5 10,1 8,2 14,7 19,5 17,6 45 67 92 1.013 1.022 1.029 WNW 6,4 61,2 133,6
12/2019 3,8 9,4 15,9 12,7 10,9 16,9 23,7 19,9 41 64 92 998 1.015 1.030 W 8,8 96,6 76,8
11/2019 5,1 11,1 18,6 14,5 13,9 18,3 27,2 22,1 35 49 75 995 1.007 1.015 W 12,0 74,0 6,2
10/2019 10,5 15,1 19,1 19,3 14,2 24,6 33,2 22,7 32 60 80 1.004 1.013 1.018 ESE 6,4 48,3 19,6
09/2019 14,7 18,7 21,8 22,7 18,8 27,5 34,2 19,5 31 65 81 1.006 1.014 1.022 ESE 3,9 43,5 118,4
08/2019 16,8 20,8 25,3 25,8 24,4 31,5 39,6 22,8 31 59 75 1.007 1.012 1.017 ESE 6,1 45,1 14,8
07/2019 19,9 21,3 24,2 26,4 26,8 32,1 37,7 17,8 31 51 71 1.002 1.010 1.017 ESE 6,2 56,3 4,2
06/2019 11,2 16,8 21,6 22,3 22,0 28,0 37,6 26,4 24 51 70 1.005 1.012 1.018 ESE 5,8 61,2 0,0
05/2019 7,9 13,2 18,8 18,0 18,2 23,4 30,5 22,6 41 57 82 1.002 1.012 1.021 SW 4,7 57,9 18,4
04/2019 7,2 10,3 13,0 14,3 13,6 19,1 28,7 21,5 28 59 95 996 1.010 1.022 WSW 5,8 51,5 153,4
03/2019 5,6 8,8 14,9 13,9 10,8 20,0 27,4 21,8 30 47 84 1.007 1.019 1.026 WSW 4,4 67,6 27,0
02/2019 2,4 6,5 11,2 11,4 11,4 17,7 25,7 23,3 29 53 73 991 1.021 1.030 SSW 4,2 53,1 0,0
Tots els anys disponibles
2019 0,7 13,2 25,3 17,7 10,8 22,9 39,6 38,9 24 55 95 991 1.013 1.030 ESE 6,2 96,6 438,8
2018 1,2 13,4 25,1 17,6 6,9 22,6 37,7 36,5 36 64 94 997 1.015 1.027 ESE 3,5 77,2 646,6
2017 -0,6 12,9 24,3 17,8 6,5 22,9 37,4 38,0 39 56 62 1.011 1.015 1.019 5,7 85,0 366,8
2016 0,2 13,3 25,8 17,9 9,4 22,5 39,3 39,1 50 58 72 1.010 1.015 1.025 9,9 95,0 525,8
2015 0,3 13,3 20,5 18,0 21,6 22,8 39,9 39,6 42 58 67 994 1.014 1.027 6,2 96,6 475,8
2014 1,3 13,8 18,9 18,1 20,6 23,1 39,3 38,0 38 59 74 1.009 1.016 1.026 5,9 88,5 335,6
2013 1,7 12,9 17,3 17,2 18,3 22,3 34,1 32,4 7,1 88,5 277,6
2012 -1,8 12,7 17,9 17,3 23,4 22,8 40,3 42,1 4,7 77,2 309,8
2011 -2,4 13,1 22,9 17,2 7,2 22,4 37,4 39,8 3,5 77,2 405,8
2010 -1,1 12,2 18,5 16,4 18,4 21,2 41,4 42,5 5,0 107,8 480,6
2009 -1,7 12,9 23,8 17,3 4,5 22,5 41,1 42,8 5,6 90,1 457,2
2008 1,2 12,4 16,7 21,6 36,1 34,9 5,7 97,0 602,6
2007 0,4 12,9 17,2 22,1 36,9 36,5 6,2 80,0 594,7
Temperatura (°C)
Humitat relativa (%)
Velocitat del vent i ràfega màxima (km/h)
Direcció del vent (°)
Pressió (hPa)
Precipitació (mm)
Nota sobre les dades: s'avisa a l'usuari de la provisionalitat i no oficialitat d'aquestes dades
Logo AVAMET blanc
Web allotjada a Sollutia
Llicència de Creative CommonsLa web d'AVAMET i els seus continguts estan subjectes a una llicència de
Reconeixement - No Comercial - Compartir igual
Últimes estacions:  Altea - Com. Regants (Soci), Almoines (Inforatge), Beniparrell (Inforatge), Albal (Inforatge), Almussafes - Parc Industrial (Inforatge), La Vilavella (Soci), la Serratella (soci) - - -